Time;durP1;ratioP1;P1;durP2;ratioP2;P2;SDS_P1;SDS_P2;PMS_P1;PMS_P2;Temp;Humidity;BMP_temperature;BMP_pressure;BME280_temperature;BME280_humidity;BME280_pressure;Samples;Min_cycle;Max_cycle;Signal;HPM_P1;HPM_P2
2021/09/19 00:02:25;;;;;;;6.32;3.80;;;;;;;15.56;62.23;92526.38;2057898;69;20156;-78
2021/09/19 00:04:51;;;;;;;6.20;3.47;;;;;;;15.66;61.16;92509.75;2057925;69;20165;-77
2021/09/19 00:07:17;;;;;;;5.97;3.30;;;;;;;15.63;61.85;92511.06;2057695;69;20223;-78
2021/09/19 00:09:42;;;;;;;4.72;3.63;;;;;;;15.59;62.53;92510.91;2057888;69;20150;-79
2021/09/19 00:12:08;;;;;;;5.70;3.88;;;;;;;15.63;62.36;92506.09;2057931;69;20223;-77
2021/09/19 00:14:36;;;;;;;5.57;3.83;;;;;;;15.72;61.28;92505.06;2057861;69;20215;-78
2021/09/19 00:17:03;;;;;;;4.20;3.53;;;;;;;15.57;62.26;92503.00;2057815;69;20173;-77
2021/09/19 00:19:28;;;;;;;5.40;3.85;;;;;;;14.95;63.79;92508.34;2057808;69;20514;-78
2021/09/19 00:21:54;;;;;;;6.68;3.78;;;;;;;15.30;63.16;92511.84;2057816;69;20165;-80
2021/09/19 00:24:20;;;;;;;5.38;4.07;;;;;;;15.04;64.33;92509.41;2057922;69;20145;-79
2021/09/19 00:26:45;;;;;;;6.22;3.83;;;;;;;15.34;62.54;92514.84;2057815;69;20137;-82
2021/09/19 00:29:11;;;;;;;4.50;3.55;;;;;;;15.46;62.23;92501.16;2057860;69;20181;-79
2021/09/19 00:31:37;;;;;;;6.85;3.70;;;;;;;15.28;63.29;92506.09;2054454;69;20154;-81
2021/09/19 00:34:02;;;;;;;4.55;3.58;;;;;;;15.24;63.10;92503.84;2057754;69;20230;-78
2021/09/19 00:36:28;;;;;;;5.15;3.60;;;;;;;15.21;62.94;92508.72;2058400;69;20154;-76
2021/09/19 00:38:53;;;;;;;4.57;3.70;;;;;;;15.17;62.75;92508.53;2058252;69;20149;-76
2021/09/19 00:41:19;;;;;;;6.20;3.35;;;;;;;15.22;63.47;92504.50;2057778;69;20150;-77
2021/09/19 00:43:45;;;;;;;7.18;4.00;;;;;;;15.04;64.38;92503.75;2057790;69;20593;-80
2021/09/19 00:46:10;;;;;;;6.80;3.97;;;;;;;15.09;63.23;92496.88;2057333;69;20145;-82
2021/09/19 00:48:36;;;;;;;4.78;3.80;;;;;;;15.17;63.34;92490.81;2057986;69;20157;-77
2021/09/19 00:51:03;;;;;;;5.93;3.95;;;;;;;15.23;62.13;92488.22;2058356;69;20161;-76
2021/09/19 00:53:32;;;;;;;5.65;3.88;;;;;;;15.04;63.66;92486.75;2058204;69;20193;-79
2021/09/19 00:56:03;;;;;;;4.85;3.80;;;;;;;15.14;62.71;92487.16;2058314;69;20146;-81
2021/09/19 00:58:30;;;;;;;4.47;3.75;;;;;;;15.27;63.33;92488.38;2058292;69;20162;-78
2021/09/19 01:00:56;;;;;;;7.55;4.10;;;;;;;15.09;63.91;92498.97;2058265;69;20141;-81
2021/09/19 01:03:21;;;;;;;7.85;4.20;;;;;;;15.15;63.08;92496.38;2057815;69;20157;-81
2021/09/19 01:05:47;;;;;;;5.07;3.58;;;;;;;15.23;62.44;92493.88;2058281;69;20521;-79
2021/09/19 01:08:15;;;;;;;3.90;3.50;;;;;;;15.34;61.99;92489.34;2058144;69;20137;-81
2021/09/19 01:10:41;;;;;;;6.53;3.92;;;;;;;15.11;62.77;92494.09;2057684;69;20219;-80
2021/09/19 01:13:07;;;;;;;5.95;3.80;;;;;;;15.21;63.28;92491.69;2058251;69;20580;-81
2021/09/19 01:15:33;;;;;;;4.72;3.80;;;;;;;15.16;62.52;92495.00;2058275;69;20180;-77
2021/09/19 01:18:00;;;;;;;4.55;4.03;;;;;;;14.53;66.16;92486.72;2058240;69;20157;-81
2021/09/19 01:20:26;;;;;;;6.22;3.97;;;;;;;14.88;64.52;92481.13;2058227;69;20161;-77
2021/09/19 01:23:03;;;;;;;6.72;3.90;;;;;;;15.05;62.89;92473.28;2057518;69;20181;-78
2021/09/19 01:25:29;;;;;;;5.30;4.15;;;;;;;15.05;62.98;92478.97;2056763;69;20150;-81
2021/09/19 01:27:55;;;;;;;6.25;3.95;;;;;;;14.94;63.86;92477.81;2057176;69;20181;-76
2021/09/19 01:30:21;;;;;;;7.00;4.10;;;;;;;14.98;63.41;92475.88;2057918;69;20150;-78
2021/09/19 01:32:47;;;;;;;7.60;3.83;;;;;;;14.98;64.28;92475.13;2058332;69;20160;-81
2021/09/19 01:35:13;;;;;;;4.72;3.75;;;;;;;14.91;64.85;92464.94;2058545;69;20134;-80
2021/09/19 01:37:39;;;;;;;5.43;4.20;;;;;;;14.90;64.26;92454.97;2058398;69;20144;-80
2021/09/19 01:40:06;;;;;;;5.07;3.72;;;;;;;14.99;64.17;92457.50;2058523;69;20145;-80
2021/09/19 01:42:32;;;;;;;7.05;3.88;;;;;;;14.55;65.61;92461.31;2058459;69;20174;-81
2021/09/19 01:44:58;;;;;;;8.65;3.75;;;;;;;14.95;64.12;92453.78;2058068;69;20148;-81
2021/09/19 01:47:24;;;;;;;5.70;3.90;;;;;;;14.92;64.74;92455.06;2058452;69;20220;-79
2021/09/19 01:49:50;;;;;;;5.10;3.97;;;;;;;14.68;65.93;92449.13;2057790;69;20596;-79
2021/09/19 01:52:17;;;;;;;5.22;3.80;;;;;;;14.90;64.73;92443.66;2058168;69;20169;-80
2021/09/19 01:54:43;;;;;;;9.23;4.43;;;;;;;14.95;63.69;92442.44;2058487;69;20177;-80
2021/09/19 01:57:20;;;;;;;6.82;3.90;;;;;;;14.95;64.18;92442.44;2058527;69;20624;-80
2021/09/19 01:59:57;;;;;;;5.07;4.03;;;;;;;14.07;67.68;92435.91;2058282;69;20184;-77
2021/09/19 02:02:23;;;;;;;5.13;4.10;;;;;;;14.47;66.54;92436.16;2058101;69;20145;-80
2021/09/19 02:04:51;;;;;;;5.70;3.80;;;;;;;14.62;65.87;92431.88;2058516;69;20153;-78
2021/09/19 02:07:16;;;;;;;4.53;3.47;;;;;;;14.63;66.12;92439.00;2058372;69;20229;-81
2021/09/19 02:09:42;;;;;;;8.20;4.05;;;;;;;14.72;65.71;92435.13;2058507;69;20225;-79
2021/09/19 02:12:08;;;;;;;7.82;4.00;;;;;;;14.66;66.16;92435.59;2058299;69;20150;-82
2021/09/19 02:14:34;;;;;;;7.60;4.15;;;;;;;14.68;65.90;92432.84;2058014;69;20507;-82
2021/09/19 02:17:01;;;;;;;5.88;3.80;;;;;;;14.74;65.94;92421.03;2058304;69;20144;-82
2021/09/19 02:19:27;;;;;;;6.22;4.65;;;;;;;14.81;65.29;92405.75;2058208;69;20145;-82
2021/09/19 02:21:53;;;;;;;5.35;4.00;;;;;;;14.57;66.42;92411.16;2058295;69;20225;-81
2021/09/19 02:24:19;;;;;;;6.30;4.32;;;;;;;14.64;66.33;92415.69;2058604;69;20605;-81
2021/09/19 02:26:48;;;;;;;4.97;4.25;;;;;;;14.32;66.92;92409.38;2058652;69;20157;-81
2021/09/19 02:29:15;;;;;;;5.30;3.75;;;;;;;14.57;66.14;92408.31;2058506;69;20260;-81
2021/09/19 02:31:44;;;;;;;7.57;4.10;;;;;;;14.64;65.33;92401.50;2057634;69;20257;-82
2021/09/19 02:34:13;;;;;;;7.28;3.90;;;;;;;14.68;65.29;92403.78;2058297;69;20138;-80
2021/09/19 02:36:40;;;;;;;7.20;4.15;;;;;;;14.82;64.37;92389.47;2058577;69;20146;-80
2021/09/19 02:39:08;;;;;;;5.65;4.35;;;;;;;14.61;67.04;92397.13;2055262;69;20141;-80
2021/09/19 02:41:37;;;;;;;4.57;3.72;;;;;;;14.76;66.00;92394.91;2058494;69;20528;-81
2021/09/19 02:44:04;;;;;;;6.57;4.03;;;;;;;14.36;67.21;92403.16;2058398;69;20592;-79
2021/09/19 02:46:30;;;;;;;6.38;3.97;;;;;;;14.36;67.65;92401.03;2057960;69;20162;-78
2021/09/19 02:48:56;;;;;;;5.13;4.10;;;;;;;14.32;67.74;92397.31;2058030;69;20148;-78
2021/09/19 02:51:22;;;;;;;6.65;4.38;;;;;;;14.55;66.52;92404.66;2057544;69;20150;-80
2021/09/19 02:53:47;;;;;;;7.32;4.43;;;;;;;14.62;66.17;92398.63;2058075;69;20242;-80
2021/09/19 02:56:13;;;;;;;5.22;3.78;;;;;;;14.26;67.64;92397.06;2058317;69;20603;-77
2021/09/19 02:58:39;;;;;;;13.07;4.30;;;;;;;14.45;66.55;92390.78;2058391;69;20137;-76
2021/09/19 03:01:04;;;;;;;6.47;4.38;;;;;;;14.51;66.37;92388.22;2058528;69;20216;-78
2021/09/19 03:03:30;;;;;;;6.35;4.18;;;;;;;14.56;66.22;92383.44;2058445;69;20146;-80
2021/09/19 03:05:56;;;;;;;6.20;4.20;;;;;;;14.46;66.20;92375.25;2058452;69;20161;-77
2021/09/19 03:08:22;;;;;;;6.63;4.15;;;;;;;14.23;67.26;92382.06;2058320;69;20264;-79
2021/09/19 03:10:47;;;;;;;6.40;3.75;;;;;;;14.48;66.26;92373.25;2058624;69;20141;-77
2021/09/19 03:13:13;;;;;;;5.45;4.50;;;;;;;14.58;66.13;92381.44;2057848;69;20133;-79
2021/09/19 03:15:39;;;;;;;5.68;4.10;;;;;;;14.48;66.85;92372.53;2058419;69;20693;-79
2021/09/19 03:18:05;;;;;;;5.70;3.67;;;;;;;14.68;61.92;92364.13;2057959;69;20616;-79
2021/09/19 03:20:31;;;;;;;5.35;4.20;;;;;;;14.36;66.33;92367.06;2058392;69;20153;-80
2021/09/19 03:22:56;;;;;;;4.97;4.32;;;;;;;13.75;69.51;92375.06;2058290;69;20245;-77
2021/09/19 03:25:22;;;;;;;5.28;4.13;;;;;;;14.26;67.05;92371.59;2058594;69;20288;-77
2021/09/19 03:27:48;;;;;;;6.38;4.25;;;;;;;14.33;66.93;92371.16;2057796;69;20176;-80
2021/09/19 03:30:15;;;;;;;5.75;4.22;;;;;;;14.18;67.79;92374.78;2058536;69;20169;-80
2021/09/19 03:32:42;;;;;;;4.88;3.90;;;;;;;14.19;67.88;92371.31;2058369;69;20528;-79
2021/09/19 03:35:08;;;;;;;6.50;3.92;;;;;;;14.26;67.10;92363.09;2058282;69;20528;-80
2021/09/19 03:37:34;;;;;;;5.38;4.10;;;;;;;14.24;67.40;92364.44;2058297;69;20260;-79
2021/09/19 03:40:00;;;;;;;5.32;4.18;;;;;;;14.25;67.34;92362.38;2058386;69;20619;-76
2021/09/19 03:42:25;;;;;;;5.97;4.38;;;;;;;14.05;67.55;92367.16;2058399;69;20153;-80
2021/09/19 03:44:51;;;;;;;8.60;4.22;;;;;;;13.97;68.46;92365.44;2058433;69;20161;-79
2021/09/19 03:47:18;;;;;;;6.22;4.30;;;;;;;13.97;67.93;92376.78;2057931;69;20185;-76
2021/09/19 03:49:44;;;;;;;7.07;4.00;;;;;;;14.24;66.92;92383.53;2058230;69;20164;-81
2021/09/19 03:52:10;;;;;;;6.57;4.60;;;;;;;14.19;67.72;92384.72;2058146;69;20150;-78
2021/09/19 03:54:35;;;;;;;6.80;4.25;;;;;;;14.16;67.29;92391.69;2058304;69;20145;-80
2021/09/19 03:57:01;;;;;;;7.07;4.90;;;;;;;14.10;67.24;92380.81;2058293;69;20150;-81
2021/09/19 03:59:27;;;;;;;5.25;4.22;;;;;;;14.12;66.95;92389.44;2058301;69;20157;-80
2021/09/19 04:01:52;;;;;;;5.55;4.85;;;;;;;14.13;66.70;92390.88;2058389;69;20508;-79
2021/09/19 04:04:18;;;;;;;7.40;4.38;;;;;;;14.25;66.45;92393.50;2058289;69;20169;-80
2021/09/19 04:06:44;;;;;;;7.00;4.55;;;;;;;14.30;66.81;92392.31;2058197;69;20165;-79
2021/09/19 04:09:10;;;;;;;6.65;4.88;;;;;;;14.29;67.46;92390.81;2058286;69;20233;-80
2021/09/19 04:11:36;;;;;;;10.43;5.28;;;;;;;14.37;66.42;92388.34;2058243;69;20145;-76
2021/09/19 04:14:02;;;;;;;7.50;4.97;;;;;;;14.30;66.84;92385.91;2058391;69;20165;-78
2021/09/19 04:16:28;;;;;;;7.18;4.88;;;;;;;14.43;65.56;92397.09;2058217;69;20639;-80
2021/09/19 04:18:53;;;;;;;5.75;4.45;;;;;;;14.31;66.98;92395.84;2057914;69;20224;-80
2021/09/19 04:21:19;;;;;;;6.13;4.90;;;;;;;14.11;67.84;92393.63;2058245;69;20149;-78
2021/09/19 04:23:45;;;;;;;7.10;4.60;;;;;;;14.11;67.50;92402.13;2058306;69;20170;-80
2021/09/19 04:26:10;;;;;;;7.53;4.70;;;;;;;14.29;65.93;92398.59;2058709;69;20505;-79
2021/09/19 04:28:36;;;;;;;6.72;4.50;;;;;;;14.23;66.87;92396.22;2058690;69;20140;-76
2021/09/19 04:31:02;;;;;;;6.63;4.75;;;;;;;14.32;66.25;92394.47;2058672;69;20181;-78
2021/09/19 04:33:27;;;;;;;8.20;4.47;;;;;;;14.29;65.70;92388.00;2058878;69;20235;-76
2021/09/19 04:35:53;;;;;;;7.55;4.80;;;;;;;14.17;67.43;92393.16;2058678;69;20140;-76
2021/09/19 04:38:18;;;;;;;5.10;4.47;;;;;;;14.16;67.75;92386.03;2058596;69;20220;-75
2021/09/19 04:40:44;;;;;;;6.65;4.40;;;;;;;14.10;67.55;92383.66;2058105;69;20165;-79
2021/09/19 04:43:12;;;;;;;7.50;4.32;;;;;;;14.05;67.27;92382.03;2058794;69;20141;-76
2021/09/19 04:45:41;;;;;;;5.53;4.55;;;;;;;13.99;68.21;92376.13;2058668;69;20232;-76
2021/09/19 04:48:07;;;;;;;7.38;4.70;;;;;;;13.90;69.11;92377.13;2058688;69;20148;-76
2021/09/19 04:50:33;;;;;;;6.20;4.65;;;;;;;13.81;68.57;92376.06;2058578;69;20134;-76
2021/09/19 04:52:58;;;;;;;5.82;4.55;;;;;;;13.85;67.14;92379.06;2058571;69;20158;-77
2021/09/19 04:55:24;;;;;;;6.20;4.40;;;;;;;13.88;67.40;92377.78;2058669;69;20134;-76
2021/09/19 04:57:50;;;;;;;7.57;4.65;;;;;;;13.64;67.84;92385.91;2058762;69;20153;-77
2021/09/19 05:00:15;;;;;;;7.47;4.30;;;;;;;13.80;67.58;92376.69;2058750;69;20241;-75
2021/09/19 05:02:41;;;;;;;6.85;3.95;;;;;;;13.87;66.98;92370.66;2058601;69;20154;-80
2021/09/19 05:05:07;;;;;;;7.88;4.50;;;;;;;13.75;68.16;92375.06;2058623;69;20513;-76
2021/09/19 05:07:33;;;;;;;5.40;4.15;;;;;;;13.73;67.77;92379.25;2058548;69;20145;-79
2021/09/19 05:09:59;;;;;;;12.35;4.40;;;;;;;13.68;67.39;92377.63;2058101;69;20137;-80
2021/09/19 05:12:24;;;;;;;5.68;4.30;;;;;;;13.57;68.58;92380.66;2058675;69;20608;-76
2021/09/19 05:14:53;;;;;;;7.25;4.13;;;;;;;13.53;67.69;92388.94;2058761;69;20146;-76
2021/09/19 05:17:18;;;;;;;4.75;3.78;;;;;;;13.51;67.75;92386.00;2058634;69;20201;-76
2021/09/19 05:19:44;;;;;;;8.98;4.40;;;;;;;13.54;67.27;92379.81;2058579;69;20137;-80
2021/09/19 05:22:09;;;;;;;6.38;4.40;;;;;;;13.57;67.40;92383.47;2058542;69;20180;-80
2021/09/19 05:24:35;;;;;;;5.95;4.43;;;;;;;13.58;66.75;92384.94;2058581;69;20520;-77
2021/09/19 05:27:00;;;;;;;9.52;4.78;;;;;;;13.53;67.81;92381.19;2058056;69;20626;-80
2021/09/19 05:29:26;;;;;;;9.40;4.28;;;;;;;13.47;67.89;92381.66;2058586;69;20154;-76
2021/09/19 05:31:52;;;;;;;6.07;4.00;;;;;;;13.55;67.46;92383.38;2058545;69;20173;-77
2021/09/19 05:34:18;;;;;;;4.57;3.95;;;;;;;13.54;67.32;92387.56;2057862;69;20151;-79
2021/09/19 05:36:43;;;;;;;6.10;4.55;;;;;;;13.45;68.50;92378.72;2058473;69;20157;-79
2021/09/19 05:39:09;;;;;;;9.45;4.70;;;;;;;13.43;68.11;92381.47;2058790;69;20150;-80
2021/09/19 05:41:34;;;;;;;16.33;9.13;;;;;;;13.22;69.13;92379.06;2058004;69;20153;-77
2021/09/19 05:44:01;;;;;;;20.25;10.70;;;;;;;13.43;68.11;92378.63;2058687;69;20564;-78
2021/09/19 05:46:26;;;;;;;20.30;15.20;;;;;;;13.54;67.84;92387.56;2058569;69;20166;-79
2021/09/19 05:48:52;;;;;;;14.70;10.35;;;;;;;13.51;67.86;92380.34;2058510;69;20175;-78
2021/09/19 05:51:21;;;;;;;19.00;11.95;;;;;;;13.62;67.21;92390.78;2058524;69;20184;-82
2021/09/19 05:53:47;;;;;;;15.25;8.68;;;;;;;13.57;67.83;92389.84;2058443;69;20140;-82
2021/09/19 05:56:12;;;;;;;7.75;5.90;;;;;;;13.47;67.86;92395.06;2058524;69;20173;-78
2021/09/19 05:58:38;;;;;;;9.05;6.03;;;;;;;13.46;68.07;92391.47;2058674;69;20593;-80
2021/09/19 06:01:04;;;;;;;10.43;7.57;;;;;;;13.41;69.09;92384.19;2058509;69;20145;-80
2021/09/19 06:03:29;;;;;;;22.75;14.55;;;;;;;13.57;67.77;92383.47;2058665;69;20146;-79
2021/09/19 06:05:55;;;;;;;11.82;7.95;;;;;;;13.34;68.89;92376.81;2058624;69;20154;-77
2021/09/19 06:08:22;;;;;;;10.65;6.93;;;;;;;13.65;66.74;92373.25;2058400;69;20150;-79
2021/09/19 06:10:48;;;;;;;8.85;5.47;;;;;;;13.60;67.30;92379.34;2058486;69;20614;-77
2021/09/19 06:13:13;;;;;;;11.05;5.97;;;;;;;12.92;70.85;92369.88;2058597;69;20282;-77
2021/09/19 06:15:39;;;;;;;7.07;5.05;;;;;;;13.45;68.29;92375.16;2058532;69;20652;-76
2021/09/19 06:18:05;;;;;;;8.57;5.47;;;;;;;13.57;68.23;92377.81;2058504;69;20670;-76
2021/09/19 06:20:31;;;;;;;7.72;5.05;;;;;;;13.61;67.89;92369.53;2058484;69;20145;-80
2021/09/19 06:22:56;;;;;;;8.07;5.30;;;;;;;13.76;66.78;92365.22;2058439;69;20153;-79
2021/09/19 06:25:22;;;;;;;8.43;5.22;;;;;;;13.76;66.86;92359.56;2058525;69;20154;-79
2021/09/19 06:27:49;;;;;;;10.52;7.63;;;;;;;13.11;70.20;92369.38;2058430;69;20177;-77
2021/09/19 06:30:14;;;;;;;9.45;7.00;;;;;;;13.41;68.62;92364.41;2060061;69;20245;-75
2021/09/19 06:32:40;;;;;;;11.70;8.98;;;;;;;13.64;67.39;92356.91;2060365;69;20224;-78
2021/09/19 06:35:06;;;;;;;13.98;11.48;;;;;;;13.55;67.79;92357.91;2058539;69;20160;-79
2021/09/19 06:37:32;;;;;;;11.35;9.88;;;;;;;13.45;68.58;92358.19;2058355;69;20165;-80
2021/09/19 06:39:58;;;;;;;9.68;6.25;;;;;;;13.53;68.32;92350.09;2058431;69;20215;-77
2021/09/19 06:42:23;;;;;;;11.80;6.05;;;;;;;13.63;67.77;92353.34;2058571;69;20153;-78
2021/09/19 06:44:49;;;;;;;14.18;8.20;;;;;;;13.80;66.30;92351.25;2058451;69;20157;-78
2021/09/19 06:47:16;;;;;;;9.00;6.90;;;;;;;13.86;65.77;92352.22;2058483;69;20145;-78
2021/09/19 06:49:41;;;;;;;13.13;8.75;;;;;;;13.88;65.77;92352.31;2058442;69;20318;-80
2021/09/19 06:52:07;;;;;;;10.38;8.27;;;;;;;13.84;66.91;92363.47;2058278;69;20149;-78
2021/09/19 06:54:32;;;;;;;14.07;8.23;;;;;;;13.75;65.13;92358.81;2058394;69;20596;-78
2021/09/19 06:56:58;;;;;;;23.08;13.70;;;;;;;13.10;70.45;92361.53;2058490;69;20164;-78
2021/09/19 06:59:24;;;;;;;15.77;11.20;;;;;;;13.26;70.04;92356.66;2058510;69;20225;-78
2021/09/19 07:01:49;;;;;;;22.02;13.35;;;;;;;13.47;69.04;92353.38;2057815;69;20212;-80
2021/09/19 07:04:15;;;;;;;15.75;9.98;;;;;;;13.81;65.96;92353.41;2058375;69;20158;-79
2021/09/19 07:06:40;;;;;;;12.93;8.88;;;;;;;13.75;67.97;92352.44;2058385;69;20129;-79
2021/09/19 07:09:06;;;;;;;13.50;8.63;;;;;;;13.74;68.02;92343.19;2058373;69;20295;-79
2021/09/19 07:11:32;;;;;;;10.82;7.78;;;;;;;13.85;67.54;92347.22;2057918;69;20167;-79
2021/09/19 07:13:58;;;;;;;10.38;8.38;;;;;;;13.82;68.37;92349.22;2057809;69;20149;-80
2021/09/19 07:16:25;;;;;;;10.15;7.10;;;;;;;14.01;66.93;92342.22;2058420;69;20140;-79
2021/09/19 07:18:51;;;;;;;8.80;6.63;;;;;;;14.24;68.04;92335.41;2058360;69;20523;-80
2021/09/19 07:21:17;;;;;;;8.98;6.85;;;;;;;14.70;67.39;92335.88;2058449;69;20233;-80
2021/09/19 07:23:42;;;;;;;10.57;7.05;;;;;;;14.40;69.92;92332.53;2058241;69;20170;-81
2021/09/19 07:26:08;;;;;;;7.28;6.10;;;;;;;15.08;67.21;92333.81;2058358;69;20229;-77
2021/09/19 07:28:34;;;;;;;11.00;6.53;;;;;;;15.27;66.52;92329.56;2058298;69;20567;-76
2021/09/19 07:31:00;;;;;;;9.35;5.80;;;;;;;15.46;64.49;92323.19;2058236;69;20701;-76
2021/09/19 07:33:25;;;;;;;11.13;6.55;;;;;;;15.94;63.38;92322.78;2057710;69;20213;-77
2021/09/19 07:35:52;;;;;;;9.65;5.97;;;;;;;15.89;63.30;92324.00;2058358;69;20146;-80
2021/09/19 07:38:18;;;;;;;7.47;5.00;;;;;;;16.16;61.97;92325.66;2058220;69;20154;-80
2021/09/19 07:40:45;;;;;;;8.20;4.68;;;;;;;16.51;60.92;92331.13;2058375;69;20154;-78
2021/09/19 07:43:11;;;;;;;7.82;3.92;;;;;;;17.08;57.65;92335.06;2058296;69;20662;-80
2021/09/19 07:45:37;;;;;;;7.45;4.07;;;;;;;18.45;56.53;92328.28;2058325;69;20145;-79
2021/09/19 07:48:11;;;;;;;6.70;3.90;;;;;;;18.55;54.09;92324.97;2058383;69;20176;-78
2021/09/19 07:50:37;;;;;;;4.72;3.78;;;;;;;17.82;56.08;92323.72;2058174;69;20224;-79
2021/09/19 07:53:04;;;;;;;5.40;4.00;;;;;;;18.16;54.62;92314.69;2058215;69;20501;-79
2021/09/19 07:55:31;;;;;;;4.70;4.13;;;;;;;18.12;55.64;92323.84;2058330;69;20141;-82
2021/09/19 07:57:57;;;;;;;5.35;4.32;;;;;;;19.34;53.86;92319.72;2058310;69;20150;-83
2021/09/19 08:00:23;;;;;;;7.07;4.60;;;;;;;19.58;53.80;92313.81;2058723;69;20173;-83
2021/09/19 08:02:49;;;;;;;6.15;4.55;;;;;;;19.86;51.92;92317.28;2058868;69;20322;-82
2021/09/19 08:05:15;;;;;;;6.22;4.15;;;;;;;20.36;51.34;92304.66;2058754;69;20686;-84
2021/09/19 08:07:42;;;;;;;6.93;4.32;;;;;;;19.52;52.86;92308.72;2058628;69;20142;-80
2021/09/19 08:10:09;;;;;;;6.82;4.30;;;;;;;20.10;52.27;92310.63;2058892;69;20145;-79
2021/09/19 08:12:35;;;;;;;7.90;4.63;;;;;;;20.40;50.99;92311.19;2058709;69;20169;-78
2021/09/19 08:15:02;;;;;;;5.18;4.03;;;;;;;20.31;50.61;92304.59;2058740;69;20138;-79
2021/09/19 08:17:30;;;;;;;6.20;3.45;;;;;;;19.95;51.77;92307.47;2058742;69;20142;-85
2021/09/19 08:19:56;;;;;;;4.25;3.17;;;;;;;19.75;49.24;92304.22;2058747;69;20154;-84
2021/09/19 08:22:21;;;;;;;3.63;3.20;;;;;;;20.72;49.77;92307.47;2058059;69;20628;-84
2021/09/19 08:24:47;;;;;;;3.38;3.05;;;;;;;19.86;49.56;92303.00;2058841;69;20489;-84
2021/09/19 08:27:12;;;;;;;4.55;3.38;;;;;;;20.36;49.59;92293.97;2058876;69;20248;-82
2021/09/19 08:29:38;;;;;;;5.60;2.95;;;;;;;20.89;48.82;92300.63;2058666;69;20569;-82
2021/09/19 08:32:04;;;;;;;5.28;2.97;;;;;;;20.21;49.32;92304.41;2058198;69;20231;-83
2021/09/19 08:34:30;;;;;;;4.53;3.33;;;;;;;20.46;48.80;92305.56;2058807;69;20505;-80
2021/09/19 08:36:56;;;;;;;4.40;3.35;;;;;;;19.86;50.88;92308.00;2058708;69;20185;-88
2021/09/19 08:39:22;;;;;;;3.65;3.20;;;;;;;20.35;49.01;92306.81;2058761;69;20597;-85
2021/09/19 08:41:50;;;;;;;4.82;3.20;;;;;;;20.51;48.84;92307.13;2058757;69;20146;-83
2021/09/19 08:44:17;;;;;;;5.55;3.35;;;;;;;22.07;46.87;92305.13;2058680;69;20535;-77
2021/09/19 08:46:45;;;;;;;5.03;3.50;;;;;;;22.39;46.48;92303.38;2058639;69;20146;-79
2021/09/19 08:49:12;;;;;;;4.85;3.90;;;;;;;21.60;47.55;92295.25;2058026;69;20272;-78
2021/09/19 08:51:37;;;;;;;4.20;3.17;;;;;;;21.54;47.68;92295.88;2058647;69;20153;-81
2021/09/19 08:54:03;;;;;;;4.88;3.30;;;;;;;22.37;46.06;92297.63;2058676;69;20146;-82
2021/09/19 08:56:29;;;;;;;6.05;3.22;;;;;;;21.78;48.79;92286.16;2058690;69;20148;-80
2021/09/19 08:58:55;;;;;;;6.40;3.72;;;;;;;21.02;48.29;92287.22;2058708;69;20134;-80
2021/09/19 09:01:21;;;;;;;5.75;3.22;;;;;;;21.53;47.96;92280.13;2058818;69;20601;-86
2021/09/19 09:03:48;;;;;;;4.55;3.25;;;;;;;22.44;46.32;92270.44;2058868;69;20148;-82
2021/09/19 09:06:18;;;;;;;3.63;3.33;;;;;;;22.85;44.96;92262.91;2059072;69;20172;-85
2021/09/19 09:08:44;;;;;;;3.90;3.03;;;;;;;23.13;44.06;92258.84;2058931;69;20142;-85
2021/09/19 09:11:11;;;;;;;3.50;3.20;;;;;;;23.32;44.34;92246.06;2058650;69;20715;-80
2021/09/19 09:13:39;;;;;;;5.10;3.10;;;;;;;23.22;43.58;92243.84;2059019;69;20146;-76
2021/09/19 09:16:06;;;;;;;3.42;3.10;;;;;;;24.46;42.35;92245.84;2058762;69;20141;-77
2021/09/19 09:18:52;;;;;;;3.53;3.00;;;;;;;23.98;43.53;92227.72;2058779;69;20192;-83
2021/09/19 09:21:24;;;;;;;3.92;3.10;;;;;;;24.57;42.25;92225.03;2058086;69;20196;-82
2021/09/19 09:23:55;;;;;;;3.35;2.80;;;;;;;25.13;42.62;92216.41;2058603;69;20144;-78
2021/09/19 09:26:47;;;;;;;6.35;2.78;;;;;;;25.48;39.84;92217.78;2058660;69;20215;-80
2021/09/19 09:29:15;;;;;;;2.60;2.40;;;;;;;24.79;39.48;92215.69;2058346;69;20173;-78
2021/09/19 09:31:45;;;;;;;4.72;2.97;;;;;;;23.75;39.85;92211.84;2056855;69;20683;-81
2021/09/19 09:34:21;;;;;;;4.18;2.80;;;;;;;24.56;40.55;92205.59;2056885;69;20216;-79
2021/09/19 09:36:59;;;;;;;3.25;2.95;;;;;;;24.32;40.61;92212.00;2057592;69;20559;-77
2021/09/19 09:39:39;;;;;;;3.75;2.65;;;;;;;24.02;41.47;92213.38;2057640;69;20163;-79
2021/09/19 09:42:13;;;;;;;3.15;2.50;;;;;;;24.42;41.74;92206.31;2057943;69;20142;-79
2021/09/19 09:44:47;;;;;;;3.33;2.80;;;;;;;25.22;39.86;92201.28;2058476;69;20165;-79
2021/09/19 09:47:15;;;;;;;3.75;2.90;;;;;;;24.95;40.08;92194.09;2058492;69;20161;-80
2021/09/19 09:49:45;;;;;;;3.00;2.80;;;;;;;25.82;37.25;92193.19;2055166;69;20146;-80
2021/09/19 09:52:25;;;;;;;4.53;2.70;;;;;;;26.07;38.91;92180.13;2058382;69;20156;-81
2021/09/19 09:55:01;;;;;;;3.60;2.50;;;;;;;26.75;37.15;92174.63;2057979;69;20150;-80
2021/09/19 09:57:35;;;;;;;3.03;2.78;;;;;;;25.45;38.85;92167.38;2058350;69;20616;-80
2021/09/19 10:00:11;;;;;;;3.00;2.70;;;;;;;26.67;35.89;92162.44;2058474;69;20142;-80
2021/09/19 10:02:42;;;;;;;2.97;2.53;;;;;;;27.37;35.86;92154.59;2058666;69;20142;-80
2021/09/19 10:05:11;;;;;;;2.63;2.42;;;;;;;27.79;36.00;92164.28;2057844;69;20169;-81
2021/09/19 10:07:38;;;;;;;2.50;2.30;;;;;;;27.38;34.06;92153.16;2058201;69;20197;-79
2021/09/19 10:10:06;;;;;;;2.95;2.40;;;;;;;27.00;33.53;92143.38;2058498;69;20134;-80
2021/09/19 10:12:32;;;;;;;2.50;2.30;;;;;;;26.17;34.19;92158.44;2057909;69;20222;-80
2021/09/19 10:14:58;;;;;;;3.80;2.10;;;;;;;26.53;34.59;92148.84;2058651;69;20240;-81
2021/09/19 10:17:24;;;;;;;3.08;2.78;;;;;;;26.65;35.77;92151.63;2064521;69;20156;-80
2021/09/19 10:19:51;;;;;;;2.80;2.50;;;;;;;25.88;34.86;92143.44;2060619;69;20149;-81
2021/09/19 10:22:24;;;;;;;6.07;2.78;;;;;;;25.76;35.80;92147.13;2058634;69;20164;-80
2021/09/19 10:24:51;;;;;;;4.15;2.80;;;;;;;26.92;34.89;92140.56;2057449;69;20142;-80
2021/09/19 10:27:23;;;;;;;2.63;2.42;;;;;;;26.24;35.80;92142.50;2058461;69;20153;-83
2021/09/19 10:30:18;;;;;;;4.03;2.30;;;;;;;26.57;35.37;92140.13;2058449;69;20152;-81
2021/09/19 10:32:48;;;;;;;3.63;2.65;;;;;;;25.43;37.52;92132.06;2057691;69;20223;-83
2021/09/19 10:35:22;;;;;;;4.15;2.50;;;;;;;26.12;36.31;92137.56;2058538;69;20261;-84
2021/09/19 10:38:00;;;;;;;2.60;2.40;;;;;;;26.23;37.85;92133.16;2058403;69;20232;-80
2021/09/19 10:40:35;;;;;;;2.90;2.60;;;;;;;25.33;39.01;92130.66;2058380;69;20137;-83
2021/09/19 10:43:04;;;;;;;4.75;2.40;;;;;;;25.17;38.31;92112.72;2058209;69;20149;-82
2021/09/19 10:45:38;;;;;;;3.10;2.80;;;;;;;24.12;39.58;92106.31;2058375;69;20154;-81
2021/09/19 10:48:33;;;;;;;4.05;2.97;;;;;;;23.95;40.67;92105.56;2058372;69;20675;-79
2021/09/19 10:51:04;;;;;;;5.93;2.95;;;;;;;24.22;39.89;92106.31;2056571;69;20268;-79
2021/09/19 10:53:31;;;;;;;6.70;2.97;;;;;;;24.99;39.64;92105.53;2058233;69;20154;-80
2021/09/19 10:56:00;;;;;;;2.92;2.70;;;;;;;25.99;38.49;92104.47;2058404;69;20134;-80
2021/09/19 10:58:33;;;;;;;4.13;3.10;;;;;;;25.14;38.43;92103.38;2058441;69;20196;-82
2021/09/19 11:01:11;;;;;;;3.53;2.92;;;;;;;25.15;38.24;92089.69;2058607;69;20157;-82
2021/09/19 11:03:39;;;;;;;3.47;3.17;;;;;;;25.70;38.66;92090.16;2058361;69;20157;-82
2021/09/19 11:06:05;;;;;;;7.38;3.10;;;;;;;25.72;38.04;92098.09;2058299;69;20153;-81
2021/09/19 11:08:40;;;;;;;3.75;3.00;;;;;;;26.12;37.36;92093.56;2058301;69;20300;-82
2021/09/19 11:11:10;;;;;;;2.83;2.60;;;;;;;26.77;36.58;92090.91;2058185;69;20150;-82
2021/09/19 11:13:42;;;;;;;5.70;3.15;;;;;;;25.57;37.81;92095.28;2057993;69;20601;-83
2021/09/19 11:16:35;;;;;;;5.03;3.10;;;;;;;26.07;38.40;92090.72;2058135;69;20217;-81
2021/09/19 11:19:04;;;;;;;3.50;3.20;;;;;;;24.71;39.08;92074.66;2058304;69;20149;-80
2021/09/19 11:21:38;;;;;;;3.50;3.10;;;;;;;25.96;37.84;92077.09;2058236;69;20156;-84
2021/09/19 11:24:13;;;;;;;4.95;3.30;;;;;;;25.33;38.67;92070.16;2058576;69;20207;-81
2021/09/19 11:26:43;;;;;;;5.70;3.20;;;;;;;24.64;40.48;92061.00;2058613;69;20160;-82
2021/09/19 11:29:12;;;;;;;3.47;3.17;;;;;;;25.28;38.97;92065.88;2058231;69;20595;-83
2021/09/19 11:31:40;;;;;;;4.20;3.08;;;;;;;25.68;38.93;92072.19;2058610;69;20262;-82
2021/09/19 11:34:26;;;;;;;3.42;2.90;;;;;;;24.91;38.51;92061.66;2058461;69;20149;-83